Time;durP1;ratioP1;P1;durP2;ratioP2;P2;SDS_P1;SDS_P2;PMS_P1;PMS_P2;Temp;Humidity;BMP_temperature;BMP_pressure;BME280_temperature;BME280_humidity;BME280_pressure;Samples;Min_cycle;Max_cycle;Signal;HPM_P1;HPM_P2
2022/04/02 00:01:15;;;;;;;32.58;21.67;;;;;;;;;;4992806;28;20133;-66
2022/04/02 00:03:41;;;;;;;33.22;22.17;;;;;;;;;;4992688;28;20054;-66
2022/04/02 00:06:08;;;;;;;30.75;21.13;;;;;;;;;;4992789;28;20053;-66
2022/04/02 00:08:35;;;;;;;31.27;21.35;;;;;;;;;;4992774;28;20057;-66
2022/04/02 00:11:02;;;;;;;31.33;21.98;;;;;;;;;;4992653;28;20116;-66
2022/04/02 00:13:30;;;;;;;30.80;21.98;;;;;;;;;;4992419;28;20061;-66
2022/04/02 00:15:57;;;;;;;30.75;21.13;;;;;;;;;;4992849;28;20455;-66
2022/04/02 00:18:24;;;;;;;30.05;22.23;;;;;;;;;;4992596;28;20089;-65
2022/04/02 00:20:51;;;;;;;27.27;20.73;;;;;;;;;;4992468;28;20429;-65
2022/04/02 00:23:36;;;;;;;30.15;22.48;;;;;;;;;;4992646;28;20516;-65
2022/04/02 00:26:04;;;;;;;29.00;20.85;;;;;;;;;;4992590;28;20077;-65
2022/04/02 00:28:35;;;;;;;28.60;20.77;;;;;;;;;;4992226;28;20054;-65
2022/04/02 00:31:03;;;;;;;35.00;22.20;;;;;;;;;;4991424;28;20050;-65
2022/04/02 00:33:29;;;;;;;31.25;21.35;;;;;;;;;;4992375;28;20081;-65
2022/04/02 00:35:56;;;;;;;36.08;24.13;;;;;;;;;;4992518;28;20345;-65
2022/04/02 00:38:23;;;;;;;28.88;21.60;;;;;;;;;;4992851;28;20054;-65
2022/04/02 00:40:50;;;;;;;32.13;21.52;;;;;;;;;;4992149;28;20058;-65
2022/04/02 00:43:31;;;;;;;28.45;21.30;;;;;;;;;;4992277;28;20051;-66
2022/04/02 00:45:59;;;;;;;28.52;20.80;;;;;;;;;;4992841;28;20050;-66
2022/04/02 00:48:27;;;;;;;32.38;21.95;;;;;;;;;;4992419;28;20112;-66
2022/04/02 00:50:55;;;;;;;30.35;20.55;;;;;;;;;;4992278;28;20046;-66
2022/04/02 00:53:30;;;;;;;30.52;21.10;;;;;;;;;;4992164;28;20498;-66
2022/04/02 00:55:57;;;;;;;31.58;21.73;;;;;;;;;;4991180;28;20046;-65
2022/04/02 00:58:23;;;;;;;30.63;21.73;;;;;;;;;;4991211;28;20058;-66
2022/04/02 01:00:50;;;;;;;35.30;22.35;;;;;;;;;;4992163;28;20050;-66
2022/04/02 01:03:17;;;;;;;31.85;22.10;;;;;;;;;;4992075;28;20051;-66
2022/04/02 01:05:44;;;;;;;31.80;22.10;;;;;;;;;;4992153;28;20461;-66
2022/04/02 01:08:11;;;;;;;28.42;20.73;;;;;;;;;;4990990;28;20042;-66
2022/04/02 01:10:40;;;;;;;31.27;22.45;;;;;;;;;;4991858;28;20209;-66
2022/04/02 01:13:08;;;;;;;32.97;21.30;;;;;;;;;;4992195;28;20054;-66
2022/04/02 01:15:36;;;;;;;29.95;21.65;;;;;;;;;;4992033;28;20046;-66
2022/04/02 01:18:04;;;;;;;35.33;22.65;;;;;;;;;;4992141;28;20069;-66
2022/04/02 01:20:31;;;;;;;33.35;22.58;;;;;;;;;;4992454;28;20050;-66
2022/04/02 01:22:59;;;;;;;31.10;22.35;;;;;;;;;;4994336;28;20058;-66
2022/04/02 01:25:31;;;;;;;30.92;21.20;;;;;;;;;;4993669;28;20069;-66
2022/04/02 01:28:02;;;;;;;31.27;20.25;;;;;;;;;;4994149;28;20062;-66
2022/04/02 01:30:29;;;;;;;30.10;21.40;;;;;;;;;;4993723;28;20061;-66
2022/04/02 01:32:57;;;;;;;32.13;20.83;;;;;;;;;;4993991;28;20046;-66
2022/04/02 01:35:24;;;;;;;30.85;21.70;;;;;;;;;;4994687;28;20057;-66
2022/04/02 01:37:51;;;;;;;29.65;20.83;;;;;;;;;;4994591;28;20054;-66
2022/04/02 01:40:18;;;;;;;29.85;20.90;;;;;;;;;;4994433;28;20238;-66
2022/04/02 01:42:45;;;;;;;28.50;19.23;;;;;;;;;;4996632;28;20057;-67
2022/04/02 01:45:14;;;;;;;47.00;29.65;;;;;;;;;;4998310;28;20102;-67
2022/04/02 01:47:40;;;;;;;44.13;27.15;;;;;;;;;;4998442;28;20449;-67
2022/04/02 01:50:07;;;;;;;47.92;29.10;;;;;;;;;;4998264;28;20105;-67
2022/04/02 01:52:34;;;;;;;78.13;38.03;;;;;;;;;;4998198;28;20062;-66
2022/04/02 01:55:00;;;;;;;57.50;32.70;;;;;;;;;;5081369;23;20169;-65
2022/04/02 01:57:27;;;;;;;28.75;20.90;;;;;;;;;;5074562;28;20423;-65
2022/04/02 01:59:54;;;;;;;28.27;20.65;;;;;;;;;;5074531;28;20056;-65
2022/04/02 02:02:20;;;;;;;27.48;19.83;;;;;;;;;;5074331;28;20048;-65
2022/04/02 02:04:48;;;;;;;29.88;21.10;;;;;;;;;;5088560;28;20052;-65
2022/04/02 02:07:15;;;;;;;25.58;19.17;;;;;;;;;;5094556;28;20052;-66
2022/04/02 02:09:41;;;;;;;28.63;19.92;;;;;;;;;;5093505;28;20055;-65
2022/04/02 02:12:09;;;;;;;24.17;18.10;;;;;;;;;;5094476;28;20403;-66
2022/04/02 02:14:35;;;;;;;29.15;19.42;;;;;;;;;;5094449;28;20048;-66
2022/04/02 02:17:02;;;;;;;27.05;20.10;;;;;;;;;;5094425;28;20457;-66
2022/04/02 02:19:29;;;;;;;25.02;18.80;;;;;;;;;;5094246;28;20044;-66
2022/04/02 02:21:57;;;;;;;24.23;17.65;;;;;;;;;;5094027;28;20059;-66
2022/04/02 02:24:24;;;;;;;25.88;19.77;;;;;;;;;;5094159;28;20052;-67
2022/04/02 02:26:50;;;;;;;23.08;17.35;;;;;;;;;;5094312;28;20409;-66
2022/04/02 02:29:17;;;;;;;22.33;16.92;;;;;;;;;;5094283;28;20052;-67
2022/04/02 02:31:44;;;;;;;20.30;16.10;;;;;;;;;;5093878;28;20048;-67
2022/04/02 02:36:57;;;;;;;22.95;17.05;;;;;;;;;;5094245;28;20048;-66
2022/04/02 02:39:23;;;;;;;21.98;16.17;;;;;;;;;;5094157;28;20055;-66
2022/04/02 02:41:50;;;;;;;20.92;15.68;;;;;;;;;;5093678;28;20048;-66
2022/04/02 02:44:17;;;;;;;19.20;15.40;;;;;;;;;;5093733;28;20044;-66
2022/04/02 02:46:43;;;;;;;22.75;16.10;;;;;;;;;;5093748;28;20375;-66
2022/04/02 02:49:10;;;;;;;17.98;14.25;;;;;;;;;;5093868;28;20052;-66
2022/04/02 02:51:36;;;;;;;19.27;14.80;;;;;;;;;;5092472;28;20066;-66
2022/04/02 02:54:03;;;;;;;19.95;13.77;;;;;;;;;;5092426;28;20054;-66
2022/04/02 02:56:30;;;;;;;19.70;15.20;;;;;;;;;;5093558;28;20043;-66
2022/04/02 02:58:56;;;;;;;19.92;14.30;;;;;;;;;;5093575;28;20052;-66
2022/04/02 03:01:23;;;;;;;22.13;13.95;;;;;;;;;;5093372;28;20104;-66
2022/04/02 03:03:50;;;;;;;20.08;15.65;;;;;;;;;;5093460;28;20052;-66
2022/04/02 03:06:16;;;;;;;20.30;14.68;;;;;;;;;;5093614;28;20048;-66
2022/04/02 03:08:43;;;;;;;19.25;14.68;;;;;;;;;;5093360;28;20056;-66
2022/04/02 03:11:10;;;;;;;19.90;14.68;;;;;;;;;;5093261;28;20475;-66
2022/04/02 03:13:38;;;;;;;21.08;13.18;;;;;;;;;;5093203;28;20056;-66
2022/04/02 03:16:05;;;;;;;23.45;12.70;;;;;;;;;;5085966;28;20411;-66
2022/04/02 03:18:32;;;;;;;16.23;11.73;;;;;;;;;;5075714;28;20048;-66
2022/04/02 03:20:59;;;;;;;18.33;12.82;;;;;;;;;;5080303;28;20494;-66
2022/04/02 03:23:25;;;;;;;16.95;12.35;;;;;;;;;;5092963;28;20051;-66
2022/04/02 03:25:52;;;;;;;18.00;13.00;;;;;;;;;;5092745;28;20048;-66
2022/04/02 03:28:19;;;;;;;26.10;13.23;;;;;;;;;;5093105;28;20048;-66
2022/04/02 03:30:46;;;;;;;18.80;12.73;;;;;;;;;;5093197;28;20048;-66
2022/04/02 03:33:14;;;;;;;19.27;10.88;;;;;;;;;;5092740;28;20051;-66
2022/04/02 03:35:44;;;;;;;19.75;11.23;;;;;;;;;;5093047;28;20123;-66
2022/04/02 03:38:11;;;;;;;13.98;10.70;;;;;;;;;;5092839;28;20056;-66
2022/04/02 03:40:37;;;;;;;22.10;11.75;;;;;;;;;;5088349;28;20057;-66
2022/04/02 03:43:04;;;;;;;19.63;10.98;;;;;;;;;;5084719;28;20060;-66
2022/04/02 03:45:31;;;;;;;15.38;10.95;;;;;;;;;;5078050;28;20049;-66
2022/04/02 03:47:57;;;;;;;19.13;9.90;;;;;;;;;;5087631;28;20052;-66
2022/04/02 03:50:24;;;;;;;18.25;10.15;;;;;;;;;;5092877;28;20108;-66
2022/04/02 03:52:51;;;;;;;13.43;9.25;;;;;;;;;;5092374;28;20055;-66
2022/04/02 03:55:18;;;;;;;14.40;9.88;;;;;;;;;;5092873;28;20052;-66
2022/04/02 03:57:47;;;;;;;17.40;8.77;;;;;;;;;;5092953;28;20055;-66
2022/04/02 04:00:15;;;;;;;14.75;9.00;;;;;;;;;;5092704;28;20048;-66
2022/04/02 04:02:41;;;;;;;12.98;9.68;;;;;;;;;;5091193;28;20048;-66
2022/04/02 04:05:09;;;;;;;15.73;8.82;;;;;;;;;;5093077;28;20044;-66
2022/04/02 04:07:39;;;;;;;16.67;9.27;;;;;;;;;;5092703;28;20040;-66
2022/04/02 04:10:06;;;;;;;11.68;8.52;;;;;;;;;;5092586;28;20052;-66
2022/04/02 04:12:34;;;;;;;16.10;8.68;;;;;;;;;;5074639;28;20059;-66
2022/04/02 04:15:01;;;;;;;14.88;8.20;;;;;;;;;;5071684;28;20502;-66
2022/04/02 04:17:27;;;;;;;14.73;8.52;;;;;;;;;;5072112;28;20349;-66
2022/04/02 04:19:54;;;;;;;19.27;9.43;;;;;;;;;;5071915;28;20102;-66
2022/04/02 04:22:20;;;;;;;15.23;8.57;;;;;;;;;;5071851;28;20052;-66
2022/04/02 04:24:47;;;;;;;11.60;9.07;;;;;;;;;;5071784;28;20511;-66
2022/04/02 04:27:15;;;;;;;14.63;9.57;;;;;;;;;;5071958;28;20045;-66
2022/04/02 04:29:41;;;;;;;15.27;9.23;;;;;;;;;;5071914;28;20511;-66
2022/04/02 04:32:08;;;;;;;17.88;10.55;;;;;;;;;;5071712;28;20059;-66
2022/04/02 04:34:35;;;;;;;16.63;11.25;;;;;;;;;;5071640;28;20055;-66
2022/04/02 04:37:01;;;;;;;18.17;12.32;;;;;;;;;;5071690;28;20044;-66
2022/04/02 04:39:28;;;;;;;15.40;12.23;;;;;;;;;;5071925;28;20052;-66
2022/04/02 04:41:55;;;;;;;17.00;12.38;;;;;;;;;;5078321;28;20097;-66
2022/04/02 04:44:21;;;;;;;14.82;12.18;;;;;;;;;;5090614;28;20048;-66
2022/04/02 04:46:48;;;;;;;17.40;11.88;;;;;;;;;;5091974;28;20051;-66
2022/04/02 04:49:15;;;;;;;16.55;12.70;;;;;;;;;;5091737;28;20051;-66
2022/04/02 04:51:42;;;;;;;13.70;11.45;;;;;;;;;;5091646;28;20399;-65
2022/04/02 04:54:09;;;;;;;14.52;11.98;;;;;;;;;;5091601;28;20097;-66
2022/04/02 04:56:36;;;;;;;17.05;12.98;;;;;;;;;;5092095;28;20503;-66
2022/04/02 04:59:03;;;;;;;18.27;12.90;;;;;;;;;;5091706;28;20059;-66
2022/04/02 05:01:29;;;;;;;16.23;12.57;;;;;;;;;;5090569;28;20048;-65
2022/04/02 05:03:57;;;;;;;16.75;12.88;;;;;;;;;;5091343;28;20461;-66
2022/04/02 05:06:24;;;;;;;17.08;12.73;;;;;;;;;;5091801;28;20044;-65
2022/04/02 05:08:50;;;;;;;16.98;13.02;;;;;;;;;;5091670;28;20048;-65
2022/04/02 05:11:17;;;;;;;17.10;13.68;;;;;;;;;;5090454;28;20109;-65
2022/04/02 05:13:45;;;;;;;21.55;13.82;;;;;;;;;;5091520;28;20055;-65
2022/04/02 05:16:11;;;;;;;17.92;13.55;;;;;;;;;;5090590;28;20494;-65
2022/04/02 05:18:39;;;;;;;17.98;13.05;;;;;;;;;;5094335;28;20076;-65
2022/04/02 05:21:06;;;;;;;17.25;13.70;;;;;;;;;;5094308;28;20074;-65
2022/04/02 05:23:38;;;;;;;17.50;13.48;;;;;;;;;;5095349;28;20425;-65
2022/04/02 05:26:05;;;;;;;17.85;13.60;;;;;;;;;;5095490;28;20048;-66
2022/04/02 05:28:32;;;;;;;14.73;12.75;;;;;;;;;;5095609;28;20047;-65
2022/04/02 05:30:59;;;;;;;19.10;13.80;;;;;;;;;;5095124;28;20062;-65
2022/04/02 05:33:26;;;;;;;15.50;12.57;;;;;;;;;;5095285;28;20051;-65
2022/04/02 05:36:06;;;;;;;16.60;12.73;;;;;;;;;;5095288;28;20067;-65
2022/04/02 05:38:33;;;;;;;16.80;12.60;;;;;;;;;;5095609;28;20048;-65
2022/04/02 05:41:00;;;;;;;18.40;12.57;;;;;;;;;;5095460;28;20105;-66
2022/04/02 05:43:26;;;;;;;14.00;11.73;;;;;;;;;;5094963;28;20498;-66
2022/04/02 05:45:53;;;;;;;15.77;11.00;;;;;;;;;;5095136;28;20129;-65
2022/04/02 05:48:21;;;;;;;15.57;10.32;;;;;;;;;;5095198;28;20044;-65
2022/04/02 05:50:48;;;;;;;13.13;11.13;;;;;;;;;;5094773;28;20097;-65
2022/04/02 05:53:14;;;;;;;13.80;10.73;;;;;;;;;;5094781;28;20048;-65
2022/04/02 05:55:42;;;;;;;12.70;11.18;;;;;;;;;;5095305;28;20116;-65
2022/04/02 05:58:12;;;;;;;13.60;10.50;;;;;;;;;;5094814;28;20086;-65
2022/04/02 06:00:39;;;;;;;13.65;10.57;;;;;;;;;;5094951;28;20126;-65
2022/04/02 06:03:05;;;;;;;15.38;11.32;;;;;;;;;;5094500;28;20082;-65
2022/04/02 06:05:32;;;;;;;12.10;10.48;;;;;;;;;;5094941;28;20105;-65
2022/04/02 06:07:59;;;;;;;12.13;10.20;;;;;;;;;;5094436;28;20498;-65
2022/04/02 06:10:26;;;;;;;15.30;11.13;;;;;;;;;;5095056;28;20097;-65
2022/04/02 06:12:53;;;;;;;13.52;10.68;;;;;;;;;;5094049;28;20117;-65
2022/04/02 06:15:20;;;;;;;10.93;9.57;;;;;;;;;;5094620;28;20059;-65
2022/04/02 06:17:46;;;;;;;13.40;10.25;;;;;;;;;;5094359;28;20079;-65
2022/04/02 06:20:13;;;;;;;11.95;9.40;;;;;;;;;;5094855;28;20517;-65
2022/04/02 06:22:40;;;;;;;9.88;8.75;;;;;;;;;;5094185;28;20098;-65
2022/04/02 06:25:08;;;;;;;11.95;9.90;;;;;;;;;;5094130;28;20082;-65
2022/04/02 06:27:44;;;;;;;13.23;8.98;;;;;;;;;;5094019;28;20106;-65
2022/04/02 06:30:12;;;;;;;11.23;9.10;;;;;;;;;;5094239;28;20052;-65
2022/04/02 06:32:40;;;;;;;11.57;9.32;;;;;;;;;;5094071;28;20048;-65
2022/04/02 06:35:07;;;;;;;10.82;8.60;;;;;;;;;;5093982;28;20529;-65
2022/04/02 06:37:34;;;;;;;49.20;11.88;;;;;;;;;;5094067;28;20044;-66
2022/04/02 06:40:03;;;;;;;12.45;10.05;;;;;;;;;;5093967;28;20052;-64
2022/04/02 06:42:30;;;;;;;10.70;8.98;;;;;;;;;;5091296;28;20056;-64
2022/04/02 06:44:56;;;;;;;11.98;9.48;;;;;;;;;;5091818;28;20097;-64
2022/04/02 06:47:27;;;;;;;11.90;9.55;;;;;;;;;;5073465;28;20040;-64
2022/04/02 06:49:54;;;;;;;12.13;8.93;;;;;;;;;;5076816;28;20048;-64
2022/04/02 06:52:20;;;;;;;11.32;9.38;;;;;;;;;;5076060;28;20127;-64
2022/04/02 06:54:47;;;;;;;10.75;9.60;;;;;;;;;;5079117;28;20051;-64
2022/04/02 06:57:21;;;;;;;9.85;8.80;;;;;;;;;;5079527;28;20055;-64
2022/04/02 06:59:48;;;;;;;12.18;10.00;;;;;;;;;;5076455;28;20471;-64
2022/04/02 07:02:20;;;;;;;13.13;9.57;;;;;;;;;;5077182;28;20438;-63
2022/04/02 07:04:46;;;;;;;10.50;9.35;;;;;;;;;;5076158;28;20056;-63
2022/04/02 07:07:13;;;;;;;12.43;9.77;;;;;;;;;;5079064;28;20118;-64
2022/04/02 07:09:40;;;;;;;13.65;10.05;;;;;;;;;;5076192;28;20495;-63
2022/04/02 07:12:07;;;;;;;12.05;9.90;;;;;;;;;;5077550;28;20048;-63
2022/04/02 07:14:34;;;;;;;10.65;9.20;;;;;;;;;;5076277;28;20056;-64
2022/04/02 07:17:00;;;;;;;13.23;10.25;;;;;;;;;;5078267;28;20054;-64
2022/04/02 07:19:27;;;;;;;12.63;10.07;;;;;;;;;;5076169;28;20135;-64
2022/04/02 07:21:54;;;;;;;11.98;9.90;;;;;;;;;;5077639;28;20491;-64
2022/04/02 07:24:21;;;;;;;11.40;9.85;;;;;;;;;;5078028;28;20052;-64
2022/04/02 07:26:48;;;;;;;13.05;10.05;;;;;;;;;;5076518;28;20316;-65
2022/04/02 07:29:15;;;;;;;12.70;10.85;;;;;;;;;;5076816;28;20067;-65
2022/04/02 07:31:45;;;;;;;12.20;9.75;;;;;;;;;;5076255;28;20055;-65
2022/04/02 07:34:19;;;;;;;13.35;10.32;;;;;;;;;;5079944;28;20506;-65
2022/04/02 07:37:10;;;;;;;10.88;9.70;;;;;;;;;;5076476;28;20044;-65
2022/04/02 07:39:51;;;;;;;14.73;11.02;;;;;;;;;;5073530;28;20048;-65
2022/04/02 07:42:21;;;;;;;12.25;9.90;;;;;;;;;;5075072;28;20560;-65
2022/04/02 07:45:04;;;;;;;11.85;10.02;;;;;;;;;;5081349;28;20053;-65
2022/04/02 07:47:32;;;;;;;12.38;10.05;;;;;;;;;;5076289;28;20396;-64
2022/04/02 07:50:02;;;;;;;12.82;8.82;;;;;;;;;;5077566;28;20047;-64
2022/04/02 07:52:29;;;;;;;12.35;10.25;;;;;;;;;;5076524;28;20048;-67
2022/04/02 07:55:01;;;;;;;13.30;9.67;;;;;;;;;;5076033;28;20361;-66
2022/04/02 07:57:34;;;;;;;18.10;10.82;;;;;;;;;;5076766;28;20301;-66
2022/04/02 08:00:03;;;;;;;11.48;8.98;;;;;;;;;;5076026;28;20059;-65
2022/04/02 08:02:37;;;;;;;14.35;10.02;;;;;;;;;;5080393;28;20043;-65
2022/04/02 08:05:10;;;;;;;10.88;9.38;;;;;;;;;;5076604;28;20048;-65
2022/04/02 08:07:45;;;;;;;10.57;8.48;;;;;;;;;;5078645;28;20048;-66
2022/04/02 08:10:12;;;;;;;9.80;7.97;;;;;;;;;;5079237;28;20045;-65
2022/04/02 08:12:40;;;;;;;11.02;8.88;;;;;;;;;;5079239;28;20063;-66
2022/04/02 08:15:12;;;;;;;10.55;8.60;;;;;;;;;;5080091;28;20052;-65
2022/04/02 08:17:39;;;;;;;10.98;8.90;;;;;;;;;;5078401;28;20040;-66
2022/04/02 08:20:07;;;;;;;13.10;8.85;;;;;;;;;;5075167;28;20767;-66
2022/04/02 08:22:34;;;;;;;11.82;8.43;;;;;;;;;;5077223;28;20114;-67
2022/04/02 08:25:01;;;;;;;12.43;8.45;;;;;;;;;;5074358;28;20403;-66
2022/04/02 08:27:32;;;;;;;14.60;9.88;;;;;;;;;;5077457;28;20143;-65
2022/04/02 08:30:10;;;;;;;13.27;10.65;;;;;;;;;;5075420;28;20546;-65
2022/04/02 08:33:18;;;;;;;11.10;9.43;;;;;;;;;;5078065;28;20056;-65
2022/04/02 08:35:56;;;;;;;13.60;9.38;;;;;;;;;;5077005;28;20049;-65
2022/04/02 08:38:41;;;;;;;12.07;9.20;;;;;;;;;;5078475;28;20036;-66
2022/04/02 08:41:35;;;;;;;10.73;9.43;;;;;;;;;;5077793;28;20192;-66
2022/04/02 08:44:13;;;;;;;13.13;10.30;;;;;;;;;;5077810;28;20051;-66
2022/04/02 08:47:03;;;;;;;12.50;10.50;;;;;;;;;;5078251;28;20055;-65
2022/04/02 08:49:40;;;;;;;13.40;10.15;;;;;;;;;;5046321;28;20067;-67
2022/04/02 08:52:15;;;;;;;13.52;11.25;;;;;;;;;;5092616;28;20071;-65
2022/04/02 08:55:12;;;;;;;13.38;10.45;;;;;;;;;;5081047;28;20052;-67
2022/04/02 08:58:15;;;;;;;16.00;9.98;;;;;;;;;;5082326;28;20056;-65
2022/04/02 09:00:44;;;;;;;15.95;11.57;;;;;;;;;;5070556;28;20053;-66
2022/04/02 09:03:31;;;;;;;13.15;10.85;;;;;;;;;;5080105;28;20075;-66
2022/04/02 09:06:19;;;;;;;14.48;11.10;;;;;;;;;;5080909;28;20047;-65
2022/04/02 09:08:54;;;;;;;16.05;10.48;;;;;;;;;;5079561;28;20048;-65
2022/04/02 09:11:21;;;;;;;17.67;12.68;;;;;;;;;;5082133;28;20461;-66
2022/04/02 09:14:09;;;;;;;17.98;13.35;;;;;;;;;;5081915;28;20442;-65
2022/04/02 09:16:42;;;;;;;18.25;12.85;;;;;;;;;;5047464;28;20048;-66
2022/04/02 09:19:24;;;;;;;14.07;11.50;;;;;;;;;;5084939;28;20110;-67
2022/04/02 09:22:28;;;;;;;16.42;12.45;;;;;;;;;;5085701;28;20056;-66
2022/04/02 09:24:57;;;;;;;15.82;11.88;;;;;;;;;;5066484;28;20469;-66
2022/04/02 09:27:51;;;;;;;16.92;12.85;;;;;;;;;;5078336;28;20403;-67
2022/04/02 09:30:32;;;;;;;14.90;11.95;;;;;;;;;;5089454;28;20131;-67
2022/04/02 09:33:15;;;;;;;16.85;12.13;;;;;;;;;;5079909;28;20055;-67
2022/04/02 09:36:20;;;;;;;20.33;13.98;;;;;;;;;;5078596;28;20614;-66
2022/04/02 09:38:48;;;;;;;16.63;12.18;;;;;;;;;;5079557;28;20069;-66
2022/04/02 09:41:43;;;;;;;18.25;13.13;;;;;;;;;;5082206;28;20142;-68
2022/04/02 09:44:36;;;;;;;15.60;12.90;;;;;;;;;;5081827;28;20071;-65
2022/04/02 09:47:16;;;;;;;16.45;12.65;;;;;;;;;;5053946;28;20514;-66
2022/04/02 09:50:12;;;;;;;15.73;11.68;;;;;;;;;;5083654;28;20140;-66
2022/04/02 09:52:55;;;;;;;17.33;13.15;;;;;;;;;;5080037;28;20048;-66
2022/04/02 09:55:26;;;;;;;16.77;12.48;;;;;;;;;;5079862;28;20055;-68
2022/04/02 09:58:15;;;;;;;18.98;11.88;;;;;;;;;;5084217;28;20048;-69
2022/04/02 10:01:06;;;;;;;16.60;12.55;;;;;;;;;;5077762;28;20052;-68
2022/04/02 10:03:49;;;;;;;16.27;12.95;;;;;;;;;;5080420;28;20554;-68
2022/04/02 10:06:42;;;;;;;13.93;11.70;;;;;;;;;;5082564;28;20052;-68
2022/04/02 10:09:14;;;;;;;19.58;13.20;;;;;;;;;;5079946;28;20090;-68
2022/04/02 10:11:53;;;;;;;17.67;12.82;;;;;;;;;;5078796;28;20044;-68
2022/04/02 10:14:25;;;;;;;20.35;13.15;;;;;;;;;;5076758;28;20049;-68
2022/04/02 10:16:55;;;;;;;16.60;12.63;;;;;;;;;;5082736;28;20188;-68
2022/04/02 10:19:30;;;;;;;19.05;12.25;;;;;;;;;;5078701;28;20094;-67
2022/04/02 10:22:01;;;;;;;16.23;12.30;;;;;;;;;;5077756;28;20495;-68
2022/04/02 10:24:30;;;;;;;18.40;12.43;;;;;;;;;;5077176;28;20048;-67
2022/04/02 10:26:58;;;;;;;20.33;14.00;;;;;;;;;;5062577;28;20048;-67
2022/04/02 10:29:43;;;;;;;20.52;14.07;;;;;;;;;;5077141;28;20048;-68
2022/04/02 10:32:28;;;;;;;20.10;13.60;;;;;;;;;;5076889;28;20055;-67
2022/04/02 10:35:06;;;;;;;18.23;13.60;;;;;;;;;;5079548;28;20404;-67
2022/04/02 10:37:43;;;;;;;18.60;13.43;;;;;;;;;;5080425;28;20526;-67
2022/04/02 10:40:13;;;;;;;16.38;13.05;;;;;;;;;;5089498;28;20051;-68
2022/04/02 10:42:42;;;;;;;18.30;13.63;;;;;;;;;;5086002;28;20063;-67
2022/04/02 10:45:14;;;;;;;19.33;13.80;;;;;;;;;;5079501;28;20492;-65
2022/04/02 10:47:55;;;;;;;20.92;12.90;;;;;;;;;;5080948;28;20131;-66
2022/04/02 10:50:24;;;;;;;14.82;11.30;;;;;;;;;;5076676;28;20055;-64
2022/04/02 10:52:51;;;;;;;16.65;12.52;;;;;;;;;;5080955;28;20787;-64
2022/04/02 10:55:22;;;;;;;18.25;13.35;;;;;;;;;;5078563;28;20048;-65
2022/04/02 10:57:48;;;;;;;19.00;13.23;;;;;;;;;;5076213;28;20048;-64
2022/04/02 11:00:16;;;;;;;16.52;12.90;;;;;;;;;;5081137;28;20049;-64
2022/04/02 11:02:52;;;;;;;20.05;14.05;;;;;;;;;;5077396;28;20056;-65
2022/04/02 11:05:21;;;;;;;16.58;13.18;;;;;;;;;;5081644;22;20094;-67
2022/04/02 11:07:51;;;;;;;18.42;13.70;;;;;;;;;;5058702;28;20372;-67
2022/04/02 11:10:22;;;;;;;16.25;13.15;;;;;;;;;;5057932;28;20065;-67
2022/04/02 11:12:49;;;;;;;21.35;16.23;;;;;;;;;;5065576;28;20044;-67
2022/04/02 11:15:23;;;;;;;16.02;13.32;;;;;;;;;;5037726;28;20491;-68
2022/04/02 11:17:53;;;;;;;17.25;13.55;;;;;;;;;;5079465;28;20069;-68
2022/04/02 11:20:23;;;;;;;18.40;13.52;;;;;;;;;;5080240;28;20052;-68
2022/04/02 11:22:55;;;;;;;16.77;11.15;;;;;;;;;;5081101;28;20094;-67
2022/04/02 11:25:22;;;;;;;13.93;11.30;;;;;;;;;;5082769;28;20131;-68
2022/04/02 11:27:55;;;;;;;14.93;11.57;;;;;;;;;;5077623;28;20052;-68
2022/04/02 11:30:29;;;;;;;15.00;12.00;;;;;;;;;;5082474;28;20487;-68
2022/04/02 11:33:05;;;;;;;13.57;11.65;;;;;;;;;;5082792;28;20468;-68
2022/04/02 11:35:40;;;;;;;13.95;11.98;;;;;;;;;;5084680;28;20055;-68
2022/04/02 11:38:10;;;;;;;15.88;11.75;;;;;;;;;;5080405;28;20044;-68
2022/04/02 11:40:42;;;;;;;14.27;12.02;;;;;;;;;;5077404;28;20045;-68
2022/04/02 11:43:08;;;;;;;17.42;13.02;;;;;;;;;;5077434;28;20047;-69
2022/04/02 11:45:36;;;;;;;15.50;11.82;;;;;;;;;;5081018;28;20051;-69
2022/04/02 11:48:12;;;;;;;14.75;12.20;;;;;;;;;;5078935;28;20049;-68
2022/04/02 11:50:43;;;;;;;16.33;13.05;;;;;;;;;;5078535;28;20051;-68
2022/04/02 11:53:13;;;;;;;14.57;12.35;;;;;;;;;;5073704;28;20049;-69
2022/04/02 11:55:41;;;;;;;16.60;12.82;;;;;;;;;;5078654;28;20059;-68
2022/04/02 11:58:12;;;;;;;14.43;12.55;;;;;;;;;;5078418;28;20052;-68
2022/04/02 12:00:47;;;;;;;16.85;13.23;;;;;;;;;;5079036;28;20409;-68
2022/04/02 12:03:22;;;;;;;17.10;13.57;;;;;;;;;;5060512;28;20048;-68
2022/04/02 12:05:51;;;;;;;14.68;12.82;;;;;;;;;;5078099;28;20117;-69
2022/04/02 12:08:29;;;;;;;16.67;12.95;;;;;;;;;;5076785;28;20048;-68
2022/04/02 12:10:58;;;;;;;16.13;13.02;;;;;;;;;;5078093;28;20048;-69
2022/04/02 12:13:25;;;;;;;15.35;12.70;;;;;;;;;;5083412;28;20050;-68
2022/04/02 12:16:04;;;;;;;13.88;12.00;;;;;;;;;;5064520;28;20053;-68
2022/04/02 12:18:32;;;;;;;22.23;13.82;;;;;;;;;;5080865;28;20525;-69
2022/04/02 12:21:03;;;;;;;18.85;15.07;;;;;;;;;;5084120;28;20051;-69
2022/04/02 12:23:31;;;;;;;17.73;14.55;;;;;;;;;;5081354;28;20052;-69
2022/04/02 12:25:59;;;;;;;14.45;11.93;;;;;;;;;;5078671;28;20059;-69
2022/04/02 12:28:26;;;;;;;17.08;13.18;;;;;;;;;;5078982;28;20048;-69
2022/04/02 12:30:54;;;;;;;17.65;13.80;;;;;;;;;;5079127;28;20502;-68
2022/04/02 12:33:24;;;;;;;16.88;13.68;;;;;;;;;;5081573;28;20094;-69
2022/04/02 12:36:07;;;;;;;15.32;12.73;;;;;;;;;;5082842;28;20047;-69
2022/04/02 12:38:38;;;;;;;19.05;14.05;;;;;;;;;;5077852;28;20056;-69
2022/04/02 12:41:28;;;;;;;18.50;12.52;;;;;;;;;;5078667;28;20059;-70
2022/04/02 12:44:03;;;;;;;18.20;14.25;;;;;;;;;;5077442;28;20976;-69
2022/04/02 12:46:30;;;;;;;15.43;12.90;;;;;;;;;;5081246;28;20063;-69
2022/04/02 12:48:58;;;;;;;17.67;12.77;;;;;;;;;;5079099;28;20485;-68
2022/04/02 12:51:25;;;;;;;16.23;13.57;;;;;;;;;;5081801;28;20044;-73
2022/04/02 12:53:59;;;;;;;17.88;14.45;;;;;;;;;;5073058;28;20049;-69
2022/04/02 12:56:29;;;;;;;15.23;13.15;;;;;;;;;;5080868;28;20055;-69
2022/04/02 12:58:56;;;;;;;19.70;13.52;;;;;;;;;;5075349;28;20052;-68
2022/04/02 13:01:27;;;;;;;17.42;13.30;;;;;;;;;;5082934;28;20047;-69
2022/04/02 13:04:07;;;;;;;15.52;12.77;;;;;;;;;;5070205;28;20053;-69
2022/04/02 13:06:44;;;;;;;17.40;14.07;;;;;;;;;;5071191;28;20544;-67
2022/04/02 13:09:18;;;;;;;17.60;13.35;;;;;;;;;;5071524;28;20045;-68
2022/04/02 13:11:57;;;;;;;16.35;13.27;;;;;;;;;;5050935;28;20045;-68
2022/04/02 13:14:24;;;;;;;16.27;13.25;;;;;;;;;;5051842;28;20509;-68
2022/04/02 13:16:55;;;;;;;18.20;13.73;;;;;;;;;;5071282;28;20051;-69
2022/04/02 13:22:13;;;;;;;19.17;13.95;;;;;;;;;;5071462;28;20060;-68
2022/04/02 13:24:59;;;;;;;19.02;14.95;;;;;;;;;;5071567;28;20422;-68
2022/04/02 13:27:31;;;;;;;22.80;16.42;;;;;;;;;;5071212;28;20079;-67
2022/04/02 13:30:12;;;;;;;20.03;15.13;;;;;;;;;;5070993;28;20070;-67
2022/04/02 13:32:57;;;;;;;18.73;14.18;;;;;;;;;;5051082;28;20287;-67
2022/04/02 13:35:43;;;;;;;21.02;15.13;;;;;;;;;;5051241;28;20063;-68
2022/04/02 13:38:41;;;;;;;20.08;15.50;;;;;;;;;;5057931;28;20048;-67
2022/04/02 13:41:11;;;;;;;21.23;15.68;;;;;;;;;;5046661;28;20479;-67
2022/04/02 13:43:47;;;;;;;19.52;15.48;;;;;;;;;;5055343;28;20057;-68
2022/04/02 13:46:15;;;;;;;20.55;15.93;;;;;;;;;;5043997;28;20047;-68
2022/04/02 13:48:57;;;;;;;20.55;16.05;;;;;;;;;;5057574;28;20045;-68
2022/04/02 13:51:43;;;;;;;21.45;16.05;;;;;;;;;;5074697;28;20040;-67
2022/04/02 13:54:42;;;;;;;23.23;15.82;;;;;;;;;;5074905;28;20048;-67
2022/04/02 13:57:19;;;;;;;22.15;16.50;;;;;;;;;;5071158;28;20052;-67
2022/04/02 13:59:58;;;;;;;23.10;17.10;;;;;;;;;;5073865;28;20048;-67
2022/04/02 14:02:26;;;;;;;23.55;16.65;;;;;;;;;;5054680;28;20053;-67
2022/04/02 14:05:22;;;;;;;24.35;16.40;;;;;;;;;;5054606;28;20060;-69
2022/04/02 14:07:52;;;;;;;18.65;15.38;;;;;;;;;;5061709;28;20041;-70
2022/04/02 14:10:19;;;;;;;17.25;13.57;;;;;;;;;;5073624;28;20070;-68
2022/04/02 14:12:46;;;;;;;18.10;13.02;;;;;;;;;;5058942;28;20098;-67
2022/04/02 14:15:13;;;;;;;18.10;13.60;;;;;;;;;;5047937;28;20040;-69
2022/04/02 14:17:43;;;;;;;16.40;12.93;;;;;;;;;;5086870;28;20094;-68
2022/04/02 14:20:12;;;;;;;16.15;13.38;;;;;;;;;;5080055;28;20068;-69
2022/04/02 14:22:57;;;;;;;16.67;13.25;;;;;;;;;;5080825;28;20054;-73
2022/04/02 14:26:19;;;;;;;19.10;13.88;;;;;;;;;;5077829;28;20044;-71
2022/04/02 14:28:55;;;;;;;20.10;15.18;;;;;;;;;;5008656;28;20048;-73
2022/04/02 14:31:43;;;;;;;20.75;16.33;;;;;;;;;;5081024;28;20048;-70
2022/04/02 14:34:32;;;;;;;25.88;16.85;;;;;;;;;;5094147;28;20131;-73
2022/04/02 14:37:04;;;;;;;24.50;17.58;;;;;;;;;;5076067;28;20052;-73
2022/04/02 14:39:31;;;;;;;26.42;16.95;;;;;;;;;;5084114;28;20037;-73
2022/04/02 14:42:04;;;;;;;24.90;17.67;;;;;;;;;;5094254;28;20418;-72
2022/04/02 14:44:42;;;;;;;23.97;17.03;;;;;;;;;;5074155;28;20543;-72
2022/04/02 14:47:40;;;;;;;24.00;16.75;;;;;;;;;;5065292;28;20056;-74
2022/04/02 14:50:18;;;;;;;24.05;18.77;;;;;;;;;;5080690;28;20210;-73